Time;durP1;ratioP1;P1;durP2;ratioP2;P2;SDS_P1;SDS_P2;PMS_P1;PMS_P2;Temp;Humidity;BMP_temperature;BMP_pressure;BME280_temperature;BME280_humidity;BME280_pressure;Samples;Min_cycle;Max_cycle;Signal;HPM_P1;HPM_P2
2023/12/29 00:01:59;;;;;;;4.63;3.97;;;;;;;-145.63;100.00;61273.97;5062179;28;20075;-63
2023/12/29 00:04:26;;;;;;;5.07;4.30;;;;;;;-145.63;100.00;61273.97;5062860;28;20221;-63
2023/12/29 00:06:52;;;;;;;4.85;3.92;;;;;;;-145.63;100.00;61273.97;5062060;28;20193;-64
2023/12/29 00:09:20;;;;;;;5.90;4.20;;;;;;;-145.63;100.00;61273.97;5047889;28;20062;-62
2023/12/29 00:11:55;;;;;;;5.72;4.30;;;;;;;-145.63;100.00;61273.97;5059181;28;20028;-62
2023/12/29 00:14:21;;;;;;;5.05;4.28;;;;;;;-145.63;100.00;61273.97;5063299;28;20181;-62
2023/12/29 00:16:46;;;;;;;4.53;3.83;;;;;;;-145.63;100.00;61273.97;5062960;28;20036;-64
2023/12/29 00:19:12;;;;;;;4.63;4.07;;;;;;;-145.63;100.00;61273.97;5061514;28;20469;-62
2023/12/29 00:21:38;;;;;;;4.30;3.85;;;;;;;-145.63;100.00;61273.97;5061683;28;20245;-63
2023/12/29 00:24:05;;;;;;;4.25;3.72;;;;;;;-145.63;100.00;61273.97;5063117;28;20062;-63
2023/12/29 00:26:31;;;;;;;4.57;3.83;;;;;;;-145.63;100.00;61273.97;5059236;28;20179;-62
2023/12/29 00:28:57;;;;;;;3.80;3.50;;;;;;;-145.63;100.00;61273.97;5062994;28;20024;-64
2023/12/29 00:31:23;;;;;;;3.90;3.55;;;;;;;-145.63;100.00;61273.97;5062752;28;20433;-64
2023/12/29 00:33:52;;;;;;;4.68;3.70;;;;;;;-145.63;100.00;61273.97;5062496;28;20052;-63
2023/12/29 00:36:19;;;;;;;3.70;3.30;;;;;;;-145.63;100.00;61273.97;5058542;28;20420;-62
2023/12/29 00:38:45;;;;;;;6.40;4.80;;;;;;;-145.63;100.00;61273.97;5062348;28;20304;-61
2023/12/29 00:41:11;;;;;;;6.43;4.53;;;;;;;-145.63;100.00;61273.97;5061850;28;20021;-62
2023/12/29 00:43:37;;;;;;;5.43;4.70;;;;;;;-145.63;100.00;61273.97;5062651;28;20033;-62
2023/12/29 00:46:03;;;;;;;5.97;4.43;;;;;;;-145.63;100.00;61273.97;5062168;28;20096;-61
2023/12/29 00:48:29;;;;;;;4.85;4.32;;;;;;;-145.63;100.00;61273.97;5062613;28;20075;-61
2023/12/29 00:50:55;;;;;;;6.10;4.60;;;;;;;-145.63;100.00;61273.97;5062173;28;20040;-61
2023/12/29 00:53:21;;;;;;;5.22;4.50;;;;;;;-145.63;100.00;61273.97;5062687;28;20020;-61
2023/12/29 00:55:46;;;;;;;5.50;3.90;;;;;;;-145.63;100.00;61273.97;5061074;28;20024;-61
2023/12/29 00:58:12;;;;;;;7.05;4.30;;;;;;;-145.63;100.00;61273.97;5062155;28;20063;-62
2023/12/29 01:00:38;;;;;;;4.43;3.97;;;;;;;-145.63;100.00;61273.97;5060336;28;20029;-61
2023/12/29 01:03:04;;;;;;;5.00;3.78;;;;;;;-145.63;100.00;61273.97;5062598;28;20186;-63
2023/12/29 01:05:29;;;;;;;4.57;3.80;;;;;;;-145.63;100.00;61273.97;5049372;28;20028;-61
2023/12/29 01:07:55;;;;;;;5.53;3.85;;;;;;;-145.63;100.00;61273.97;5053359;28;20531;-61
2023/12/29 01:10:21;;;;;;;6.03;3.97;;;;;;;-145.63;100.00;61273.97;5046730;28;20031;-61
2023/12/29 01:12:47;;;;;;;5.18;3.83;;;;;;;-145.63;100.00;61273.97;5045244;28;20022;-60
2023/12/29 01:15:13;;;;;;;4.43;3.67;;;;;;;-145.63;100.00;61273.97;5061795;28;20074;-63
2023/12/29 01:17:38;;;;;;;4.80;3.80;;;;;;;-145.63;100.00;61273.97;5061918;28;20021;-62
2023/12/29 01:20:04;;;;;;;6.10;3.88;;;;;;;-145.63;100.00;61273.97;5051852;28;20041;-62
2023/12/29 01:22:31;;;;;;;4.78;3.20;;;;;;;-145.63;100.00;61273.97;5055192;28;20113;-63
2023/12/29 01:25:00;;;;;;;3.78;3.20;;;;;;;-145.63;100.00;61273.97;5043707;28;20037;-63
2023/12/29 01:27:27;;;;;;;4.82;3.78;;;;;;;-145.63;100.00;61273.97;5061907;28;20036;-63
2023/12/29 01:29:53;;;;;;;4.88;3.83;;;;;;;-145.63;100.00;61273.97;5062348;28;20024;-63
2023/12/29 01:32:19;;;;;;;4.50;3.80;;;;;;;-145.63;100.00;61273.97;5062079;28;20032;-66
2023/12/29 01:34:44;;;;;;;4.22;3.83;;;;;;;-145.63;100.00;61273.97;5058722;28;20112;-64
2023/12/29 01:37:10;;;;;;;4.38;3.50;;;;;;;-145.63;100.00;61273.97;5059079;28;20045;-63
2023/12/29 01:39:36;;;;;;;4.40;3.95;;;;;;;-145.63;100.00;61273.97;5042064;28;20313;-62
2023/12/29 01:42:02;;;;;;;4.07;3.60;;;;;;;-145.63;100.00;61273.97;5059078;28;20079;-63
2023/12/29 01:44:27;;;;;;;3.92;3.40;;;;;;;-145.63;100.00;61273.97;5061650;28;20052;-62
2023/12/29 01:46:56;;;;;;;4.50;4.10;;;;;;;-145.63;100.00;61273.97;5056829;28;20056;-63
2023/12/29 01:49:22;;;;;;;4.45;3.63;;;;;;;-145.63;100.00;61273.97;5061436;28;20066;-61
2023/12/29 01:51:55;;;;;;;4.00;3.60;;;;;;;-145.63;100.00;61273.97;5061457;28;20284;-61
2023/12/29 01:54:24;;;;;;;4.43;4.03;;;;;;;-145.63;100.00;61273.97;5042177;28;20091;-61
2023/12/29 01:56:51;;;;;;;4.53;4.00;;;;;;;-145.63;100.00;61273.97;5057774;28;20033;-63
2023/12/29 01:59:19;;;;;;;4.85;4.35;;;;;;;-145.63;100.00;61273.97;5061849;28;20366;-63
2023/12/29 02:01:45;;;;;;;4.10;3.70;;;;;;;-145.63;100.00;61273.97;5055031;28;20313;-63
2023/12/29 02:04:12;;;;;;;4.15;3.75;;;;;;;-145.63;100.00;61273.97;5058707;28;20032;-64
2023/12/29 02:06:39;;;;;;;5.50;3.97;;;;;;;-145.63;100.00;61273.97;5053773;28;20302;-63
2023/12/29 02:09:05;;;;;;;4.60;4.15;;;;;;;-145.63;100.00;61273.97;5061193;28;20025;-63
2023/12/29 02:11:31;;;;;;;6.10;3.55;;;;;;;-145.63;100.00;61273.97;5052484;28;20040;-64
2023/12/29 02:14:01;;;;;;;5.18;3.80;;;;;;;-145.63;100.00;61273.97;5048659;28;20210;-64
2023/12/29 02:16:45;;;;;;;4.53;3.85;;;;;;;-145.63;100.00;61273.97;5052832;28;20075;-64
2023/12/29 02:19:37;;;;;;;5.15;4.43;;;;;;;-145.63;100.00;61273.97;5061643;28;20035;-64
2023/12/29 02:22:03;;;;;;;;;;;;;;;-145.63;100.00;61273.97;5057640;28;20055;-62
2023/12/29 02:24:29;;;;;;;4.60;3.97;;;;;;;-145.63;100.00;61273.97;5063342;28;19904;-63
2023/12/29 02:27:32;;;;;;;4.03;3.50;;;;;;;-145.63;100.00;61273.97;5062540;28;20043;-62
2023/12/29 02:30:06;;;;;;;3.90;3.55;;;;;;;-145.63;100.00;61273.97;5039369;28;20048;-61
2023/12/29 02:32:35;;;;;;;4.40;3.75;;;;;;;-145.63;100.00;61273.97;5064608;28;20025;-63
2023/12/29 02:35:04;;;;;;;5.78;4.28;;;;;;;-145.63;100.00;61273.97;5065126;28;20051;-64
2023/12/29 02:37:31;;;;;;;4.40;4.00;;;;;;;-145.63;100.00;61273.97;5059966;28;20044;-63
2023/12/29 02:39:59;;;;;;;4.38;3.60;;;;;;;-145.63;100.00;61273.97;5063615;28;20021;-64
2023/12/29 02:42:26;;;;;;;4.10;2.97;;;;;;;-145.63;100.00;61273.97;5045460;28;20377;-64
2023/12/29 02:44:51;;;;;;;5.03;3.85;;;;;;;-145.63;100.00;61273.97;5061973;28;20039;-64
2023/12/29 02:47:19;;;;;;;4.40;4.00;;;;;;;-145.63;100.00;61273.97;5053320;28;20025;-63
2023/12/29 02:49:44;;;;;;;6.05;4.00;;;;;;;-145.63;100.00;61273.97;5058661;28;20187;-63
2023/12/29 02:52:10;;;;;;;5.43;3.75;;;;;;;-145.63;100.00;61273.97;5062442;28;20028;-63
2023/12/29 02:54:36;;;;;;;5.82;3.90;;;;;;;-145.63;100.00;61273.97;5056927;28;20025;-63
2023/12/29 02:57:01;;;;;;;4.05;3.60;;;;;;;-145.63;100.00;61273.97;5078027;28;20029;-63
2023/12/29 02:59:27;;;;;;;4.47;4.07;;;;;;;-145.63;100.00;61273.97;5064818;28;20071;-62
2023/12/29 03:01:52;;;;;;;4.10;3.70;;;;;;;-145.63;100.00;61273.97;5056694;28;20029;-62
2023/12/29 03:04:18;;;;;;;4.55;3.85;;;;;;;-145.63;100.00;61273.97;5060829;28;20036;-62
2023/12/29 03:06:44;;;;;;;4.93;3.63;;;;;;;-145.63;100.00;61273.97;5064251;28;20365;-62
2023/12/29 03:09:09;;;;;;;4.50;3.72;;;;;;;-145.63;100.00;61273.97;5064495;28;20033;-63
2023/12/29 03:11:35;;;;;;;3.83;3.35;;;;;;;-145.63;100.00;61273.97;5064209;28;20027;-63
2023/12/29 03:14:00;;;;;;;4.32;3.83;;;;;;;-145.63;100.00;61273.97;5058603;28;20142;-61
2023/12/29 03:16:26;;;;;;;5.28;3.80;;;;;;;-145.63;100.00;61273.97;5064415;28;20036;-62
2023/12/29 03:18:52;;;;;;;4.25;3.85;;;;;;;-145.63;100.00;61273.97;5064359;28;20074;-63
2023/12/29 03:21:18;;;;;;;5.65;3.97;;;;;;;-145.63;100.00;61273.97;5064604;28;20038;-62
2023/12/29 03:23:43;;;;;;;5.53;4.35;;;;;;;-145.63;100.00;61273.97;5064122;28;20033;-61
2023/12/29 03:26:09;;;;;;;5.28;4.25;;;;;;;-145.63;100.00;61273.97;5063577;28;20029;-63
2023/12/29 03:28:34;;;;;;;6.00;4.18;;;;;;;-145.63;100.00;61273.97;5059122;28;20317;-62
2023/12/29 03:31:00;;;;;;;5.85;4.78;;;;;;;-145.63;100.00;61273.97;5058974;28;20301;-62
2023/12/29 03:33:26;;;;;;;6.35;4.20;;;;;;;-145.63;100.00;61273.97;5056371;28;20041;-64
2023/12/29 03:35:51;;;;;;;5.00;4.47;;;;;;;-145.63;100.00;61273.97;5060464;28;20055;-63
2023/12/29 03:38:17;;;;;;;6.15;4.72;;;;;;;-145.63;100.00;61273.97;5053060;28;20037;-62
2023/12/29 03:40:43;;;;;;;5.95;4.88;;;;;;;-145.63;100.00;61273.97;5055641;28;20040;-62
2023/12/29 03:43:08;;;;;;;5.10;4.30;;;;;;;-145.63;100.00;61273.97;5062608;28;20058;-63
2023/12/29 03:45:34;;;;;;;5.53;4.25;;;;;;;-145.63;100.00;61273.97;5053037;28;20126;-63
2023/12/29 03:47:59;;;;;;;5.60;4.55;;;;;;;-145.63;100.00;61273.97;5062483;28;20025;-61
2023/12/29 03:50:25;;;;;;;4.80;4.30;;;;;;;-145.63;100.00;61273.97;5063359;28;20025;-61
2023/12/29 03:52:51;;;;;;;5.22;4.72;;;;;;;-145.63;100.00;61273.97;5063527;28;20075;-61
2023/12/29 03:55:16;;;;;;;5.13;4.40;;;;;;;-145.63;100.00;61273.97;5063619;28;20035;-62
2023/12/29 03:57:42;;;;;;;6.90;4.60;;;;;;;-145.63;100.00;61273.97;5063348;28;20041;-63
2023/12/29 04:00:12;;;;;;;7.88;5.15;;;;;;;-145.63;100.00;61273.97;5048045;28;20059;-63
2023/12/29 04:02:37;;;;;;;6.20;4.63;;;;;;;-145.63;100.00;61273.97;5049790;28;20106;-62
2023/12/29 04:05:05;;;;;;;6.78;4.60;;;;;;;-145.63;100.00;61273.97;5051944;28;20187;-63
2023/12/29 04:07:30;;;;;;;5.60;4.57;;;;;;;-145.63;100.00;61273.97;5058517;28;20418;-63
2023/12/29 04:09:56;;;;;;;5.72;4.30;;;;;;;-145.63;100.00;61273.97;5043382;28;20021;-63
2023/12/29 04:12:22;;;;;;;5.78;4.13;;;;;;;-145.63;100.00;61273.97;5061317;28;20029;-64
2023/12/29 04:14:47;;;;;;;5.82;4.50;;;;;;;-145.63;100.00;61273.97;5048410;28;20026;-63
2023/12/29 04:17:14;;;;;;;6.65;4.50;;;;;;;-145.63;100.00;61273.97;5059319;28;20060;-63
2023/12/29 04:19:40;;;;;;;5.80;4.78;;;;;;;-145.63;100.00;61273.97;5057797;28;20017;-64
2023/12/29 04:22:07;;;;;;;5.45;4.93;;;;;;;-145.63;100.00;61273.97;5061207;28;20032;-64
2023/12/29 04:24:33;;;;;;;5.25;4.35;;;;;;;-145.63;100.00;61273.97;5063147;28;20025;-63
2023/12/29 04:26:59;;;;;;;5.18;4.50;;;;;;;-145.63;100.00;61273.97;5060674;28;20050;-63
2023/12/29 04:29:24;;;;;;;6.03;4.47;;;;;;;-145.63;100.00;61273.97;5051743;28;20025;-63
2023/12/29 04:31:50;;;;;;;6.50;4.18;;;;;;;-145.63;100.00;61273.97;5049922;28;20029;-64
2023/12/29 04:34:16;;;;;;;6.10;4.45;;;;;;;-145.63;100.00;61273.97;5043775;28;20025;-63
2023/12/29 04:36:41;;;;;;;6.90;4.90;;;;;;;-145.63;100.00;61273.97;5062336;28;20052;-63
2023/12/29 04:39:09;;;;;;;6.78;4.80;;;;;;;-145.63;100.00;61273.97;5062910;28;20313;-63
2023/12/29 04:41:35;;;;;;;7.45;5.10;;;;;;;-145.63;100.00;61273.97;5055447;28;20020;-63
2023/12/29 04:44:00;;;;;;;7.07;4.88;;;;;;;-145.63;100.00;61273.97;5054605;28;20036;-62
2023/12/29 04:46:26;;;;;;;7.47;5.20;;;;;;;-145.63;100.00;61273.97;5050906;28;20037;-62
2023/12/29 04:48:53;;;;;;;8.45;5.30;;;;;;;-145.63;100.00;61273.97;5062540;28;20206;-62
2023/12/29 04:51:19;;;;;;;7.70;5.07;;;;;;;-145.63;100.00;61273.97;5062439;28;20040;-64
2023/12/29 04:53:44;;;;;;;7.38;5.20;;;;;;;-145.63;100.00;61273.97;5048301;28;20029;-63
2023/12/29 04:56:10;;;;;;;7.80;5.80;;;;;;;-145.63;100.00;61273.97;5052114;28;20025;-64
2023/12/29 04:58:37;;;;;;;7.78;5.88;;;;;;;-145.63;100.00;61273.97;5062302;28;20021;-66
2023/12/29 05:01:03;;;;;;;8.85;5.65;;;;;;;-145.63;100.00;61273.97;5044595;28;20229;-63
2023/12/29 05:03:28;;;;;;;7.63;5.53;;;;;;;-145.63;100.00;61273.97;5062382;28;20052;-63
2023/12/29 05:05:54;;;;;;;7.50;5.72;;;;;;;-145.63;100.00;61273.97;5062251;28;20047;-61
2023/12/29 05:08:20;;;;;;;6.43;5.68;;;;;;;-145.63;100.00;61273.97;5051114;28;20329;-61
2023/12/29 05:10:45;;;;;;;7.85;5.43;;;;;;;-145.63;100.00;61273.97;5047902;28;20025;-62
2023/12/29 05:13:11;;;;;;;7.00;5.32;;;;;;;-145.63;100.00;61273.97;5051272;28;20052;-62
2023/12/29 05:15:37;;;;;;;8.15;6.00;;;;;;;-145.63;100.00;61273.97;5061991;28;20032;-63
2023/12/29 05:18:02;;;;;;;9.57;6.10;;;;;;;-145.63;100.00;61273.97;5055066;28;20037;-63
2023/12/29 05:20:28;;;;;;;6.97;5.65;;;;;;;-145.63;100.00;61273.97;5058808;28;20028;-63
2023/12/29 05:22:54;;;;;;;8.35;6.15;;;;;;;-145.63;100.00;61273.97;5055106;28;20283;-61
2023/12/29 05:25:21;;;;;;;7.15;5.97;;;;;;;-145.63;100.00;61273.97;5044149;28;20025;-62
2023/12/29 05:27:47;;;;;;;9.18;6.70;;;;;;;-145.63;100.00;61273.97;5061265;28;20043;-62
2023/12/29 05:30:13;;;;;;;8.13;6.28;;;;;;;-145.63;100.00;61273.97;5044934;28;20030;-61
2023/12/29 05:32:39;;;;;;;12.38;7.20;;;;;;;-145.63;100.00;61273.97;5062055;28;20170;-62
2023/12/29 05:35:05;;;;;;;9.57;6.20;;;;;;;-145.63;100.00;61273.97;5056710;28;20104;-63
2023/12/29 05:37:31;;;;;;;8.57;6.57;;;;;;;-145.63;100.00;61273.97;5058654;28;20033;-62
2023/12/29 05:39:56;;;;;;;8.77;5.72;;;;;;;-145.63;100.00;61273.97;5062072;28;20078;-62
2023/12/29 05:42:22;;;;;;;8.45;6.15;;;;;;;-145.63;100.00;61273.97;5062069;28;20031;-62
2023/12/29 05:44:48;;;;;;;9.88;6.82;;;;;;;-145.63;100.00;61273.97;5061781;28;20225;-63
2023/12/29 05:47:13;;;;;;;8.43;6.38;;;;;;;-145.63;100.00;61273.97;5052877;28;20026;-62
2023/12/29 05:49:39;;;;;;;8.13;6.20;;;;;;;-145.63;100.00;61273.97;5057902;28;20021;-62
2023/12/29 05:52:08;;;;;;;8.15;6.47;;;;;;;-145.63;100.00;61273.97;5061978;28;20060;-62
2023/12/29 05:54:34;;;;;;;11.50;6.93;;;;;;;-145.63;100.00;61273.97;5061979;28;20048;-64
2023/12/29 05:57:00;;;;;;;11.15;6.63;;;;;;;-145.63;100.00;61273.97;5061902;28;20029;-62
2023/12/29 05:59:28;;;;;;;10.65;7.00;;;;;;;-145.63;100.00;61273.97;5064872;28;20480;-61
2023/12/29 06:01:54;;;;;;;9.05;6.93;;;;;;;-145.63;100.00;61273.97;5059309;28;20033;-61
2023/12/29 06:04:20;;;;;;;9.27;6.97;;;;;;;-145.63;100.00;61273.97;5054292;28;20063;-61
2023/12/29 06:06:46;;;;;;;9.45;7.00;;;;;;;-145.63;100.00;61273.97;5058385;28;20031;-63
2023/12/29 06:09:12;;;;;;;9.20;7.18;;;;;;;-145.63;100.00;61273.97;5056662;28;20063;-62
2023/12/29 06:11:37;;;;;;;9.02;7.35;;;;;;;-145.63;100.00;61273.97;5057760;28;20018;-62
2023/12/29 06:14:03;;;;;;;10.77;7.32;;;;;;;-145.63;100.00;61273.97;5053057;28;20147;-64
2023/12/29 06:16:30;;;;;;;9.35;6.90;;;;;;;-145.63;100.00;61273.97;5062666;28;20116;-62
2023/12/29 06:18:56;;;;;;;9.02;7.05;;;;;;;-145.63;100.00;61273.97;5048223;28;20246;-61
2023/12/29 06:21:22;;;;;;;8.48;7.13;;;;;;;-145.63;100.00;61273.97;5057010;28;20054;-62
2023/12/29 06:23:48;;;;;;;9.55;7.35;;;;;;;-145.63;100.00;61273.97;5065072;28;20036;-63
2023/12/29 06:26:18;;;;;;;9.27;7.60;;;;;;;-145.63;100.00;61273.97;5065524;28;20029;-62
2023/12/29 06:28:47;;;;;;;9.68;6.72;;;;;;;-145.63;100.00;61273.97;5060735;28;20034;-63
2023/12/29 06:31:13;;;;;;;9.20;7.07;;;;;;;-145.63;100.00;61273.97;5064903;28;20209;-61
2023/12/29 06:33:43;;;;;;;9.85;7.03;;;;;;;-145.63;100.00;61273.97;5065376;28;20028;-62
2023/12/29 06:36:10;;;;;;;10.48;7.05;;;;;;;-145.63;100.00;61273.97;5056378;28;20040;-62
2023/12/29 06:38:36;;;;;;;9.23;6.90;;;;;;;-145.63;100.00;61273.97;5065094;28;20056;-62
2023/12/29 06:41:06;;;;;;;10.48;6.95;;;;;;;-145.63;100.00;61273.97;5064081;28;20294;-62
2023/12/29 06:43:32;;;;;;;12.43;7.60;;;;;;;-145.63;100.00;61273.97;5065282;28;20059;-62
2023/12/29 06:45:58;;;;;;;10.95;7.97;;;;;;;-145.63;100.00;61273.97;5064768;28;20071;-63
2023/12/29 06:48:23;;;;;;;10.45;7.57;;;;;;;-145.63;100.00;61273.97;5064964;28;20031;-61
2023/12/29 06:50:49;;;;;;;10.88;7.68;;;;;;;-145.63;100.00;61273.97;5064120;28;20032;-62
2023/12/29 06:53:15;;;;;;;11.20;7.75;;;;;;;-145.63;100.00;61273.97;5073782;28;20024;-62
2023/12/29 06:55:41;;;;;;;9.98;7.65;;;;;;;-145.63;100.00;61273.97;5091122;28;20090;-62
2023/12/29 06:58:07;;;;;;;10.00;7.75;;;;;;;-145.63;100.00;61273.97;5064195;28;20048;-62
2023/12/29 07:00:33;;;;;;;12.98;8.65;;;;;;;-145.63;100.00;61273.97;5072458;28;20120;-63
2023/12/29 07:03:01;;;;;;;10.27;7.68;;;;;;;-145.63;100.00;61273.97;5064078;28;20017;-64
2023/12/29 07:05:27;;;;;;;11.80;7.97;;;;;;;-145.63;100.00;61273.97;5064611;28;20194;-64
2023/12/29 07:07:52;;;;;;;12.32;7.40;;;;;;;-145.63;100.00;61273.97;5057790;28;20029;-64
2023/12/29 07:10:18;;;;;;;10.65;7.60;;;;;;;-145.63;100.00;61273.97;5063222;28;20041;-64
2023/12/29 07:12:43;;;;;;;11.23;7.90;;;;;;;-145.63;100.00;61273.97;5064135;28;20033;-64
2023/12/29 07:15:09;;;;;;;8.90;6.95;;;;;;;-145.63;100.00;61273.97;5063553;28;20060;-65
2023/12/29 07:17:35;;;;;;;11.60;8.40;;;;;;;-145.63;100.00;61273.97;5058235;28;20044;-64
2023/12/29 07:20:01;;;;;;;13.13;8.80;;;;;;;-145.63;100.00;61273.97;5064165;28;20047;-63
2023/12/29 07:22:27;;;;;;;10.57;8.32;;;;;;;-145.63;100.00;61273.97;5066070;28;20025;-61
2023/12/29 07:24:53;;;;;;;11.98;8.35;;;;;;;-145.63;100.00;61273.97;5084492;28;20036;-63
2023/12/29 07:27:19;;;;;;;11.23;8.18;;;;;;;-145.63;100.00;61273.97;5066221;28;20021;-64
2023/12/29 07:29:44;;;;;;;11.98;7.88;;;;;;;-145.63;100.00;61273.97;5063178;28;20032;-63
2023/12/29 07:32:10;;;;;;;10.65;8.00;;;;;;;-145.63;100.00;61273.97;5062360;28;20017;-62
2023/12/29 07:34:36;;;;;;;14.10;9.23;;;;;;;-145.63;100.00;61273.97;5061971;28;20116;-64
2023/12/29 07:37:01;;;;;;;13.38;8.90;;;;;;;-145.63;100.00;61273.97;5061414;28;20036;-64
2023/12/29 07:39:27;;;;;;;11.20;8.35;;;;;;;-145.63;100.00;61273.97;5063824;28;20024;-62
2023/12/29 07:41:53;;;;;;;13.68;9.13;;;;;;;-145.63;100.00;61273.97;5062807;28;20029;-62
2023/12/29 07:44:19;;;;;;;13.55;8.95;;;;;;;-145.63;100.00;61273.97;5063851;28;20290;-63
2023/12/29 07:46:44;;;;;;;11.45;8.75;;;;;;;-145.63;100.00;61273.97;5062373;28;20231;-62
2023/12/29 07:49:10;;;;;;;14.45;8.55;;;;;;;-145.63;100.00;61273.97;5060233;28;20040;-61
2023/12/29 07:51:40;;;;;;;13.00;9.05;;;;;;;-145.63;100.00;61273.97;5061391;28;20029;-62
2023/12/29 07:54:07;;;;;;;13.23;8.57;;;;;;;-145.63;100.00;61273.97;5060220;28;20240;-63
2023/12/29 07:56:33;;;;;;;13.27;8.48;;;;;;;-145.63;100.00;61273.97;5061159;28;20055;-63
2023/12/29 07:58:58;;;;;;;10.95;7.97;;;;;;;-145.63;100.00;61273.97;5060947;28;20024;-61
2023/12/29 08:01:24;;;;;;;11.23;8.63;;;;;;;-145.63;100.00;61273.97;5061985;28;20344;-64
2023/12/29 08:03:50;;;;;;;13.13;8.73;;;;;;;-145.63;100.00;61273.97;5059539;28;20324;-62
2023/12/29 08:06:15;;;;;;;11.02;7.55;;;;;;;-145.63;100.00;61273.97;5061513;28;20025;-62
2023/12/29 08:08:41;;;;;;;10.63;7.95;;;;;;;-145.63;100.00;61273.97;5058363;28;20310;-62
2023/12/29 08:11:14;;;;;;;12.63;8.45;;;;;;;-145.63;100.00;61273.97;5050254;28;20048;-62
2023/12/29 08:13:39;;;;;;;15.68;8.82;;;;;;;-145.63;100.00;61273.97;5052631;28;20036;-62
2023/12/29 08:16:07;;;;;;;11.82;8.68;;;;;;;-145.63;100.00;61273.97;5062767;28;20028;-62
2023/12/29 08:18:32;;;;;;;10.55;7.70;;;;;;;-145.63;100.00;61273.97;5061499;28;20028;-62
2023/12/29 08:20:59;;;;;;;13.35;8.32;;;;;;;-145.63;100.00;61273.97;5060474;28;20233;-64
2023/12/29 08:23:28;;;;;;;13.73;7.70;;;;;;;-145.63;100.00;61273.97;5062367;28;20020;-64
2023/12/29 08:25:57;;;;;;;14.10;7.88;;;;;;;-145.63;100.00;61273.97;5063080;28;20321;-64
2023/12/29 08:28:22;;;;;;;10.85;7.28;;;;;;;-145.63;100.00;61273.97;5062552;28;20028;-63
2023/12/29 08:30:51;;;;;;;12.60;7.40;;;;;;;-145.63;100.00;61273.97;5062714;28;20036;-66
2023/12/29 08:33:17;;;;;;;11.93;7.55;;;;;;;-145.63;100.00;61273.97;5050561;28;20025;-65
2023/12/29 08:35:44;;;;;;;12.18;7.68;;;;;;;-145.63;100.00;61273.97;5061513;28;20260;-63
2023/12/29 08:38:10;;;;;;;10.73;7.90;;;;;;;-145.63;100.00;61273.97;5062711;28;20101;-64
2023/12/29 08:40:35;;;;;;;12.57;7.38;;;;;;;-145.63;100.00;61273.97;5060396;28;20029;-64
2023/12/29 08:43:01;;;;;;;12.38;7.80;;;;;;;-145.63;100.00;61273.97;5042968;28;20037;-64
2023/12/29 08:45:27;;;;;;;11.18;7.45;;;;;;;-145.63;100.00;61273.97;5059858;28;20309;-65
2023/12/29 08:47:54;;;;;;;13.20;7.72;;;;;;;-145.63;100.00;61273.97;5060563;28;20041;-65
2023/12/29 08:50:19;;;;;;;10.65;7.45;;;;;;;-145.63;100.00;61273.97;5060588;28;20092;-63
2023/12/29 08:52:45;;;;;;;10.57;7.53;;;;;;;-145.63;100.00;61273.97;5062260;28;20068;-64
2023/12/29 08:55:11;;;;;;;15.32;8.00;;;;;;;-145.63;100.00;61273.97;5062927;28;20037;-64
2023/12/29 08:57:36;;;;;;;11.43;7.68;;;;;;;-145.63;100.00;61273.97;5062452;28;20039;-63
2023/12/29 09:00:03;;;;;;;12.82;8.35;;;;;;;-145.63;100.00;61273.97;5061452;28;20060;-64
2023/12/29 09:02:31;;;;;;;15.02;8.50;;;;;;;-145.63;100.00;61273.97;5062758;28;20108;-64
2023/12/29 09:04:56;;;;;;;9.95;7.45;;;;;;;-145.63;100.00;61273.97;5057555;28;20048;-63
2023/12/29 09:07:22;;;;;;;13.45;7.90;;;;;;;-145.63;100.00;61273.97;5050365;28;20025;-64
2023/12/29 09:09:48;;;;;;;10.77;7.93;;;;;;;-145.63;100.00;61273.97;5062373;28;20031;-64
2023/12/29 09:12:13;;;;;;;13.13;8.48;;;;;;;-145.63;100.00;61273.97;5062377;28;20025;-63
2023/12/29 09:14:39;;;;;;;10.50;7.72;;;;;;;-145.63;100.00;61273.97;5059590;28;20025;-63
2023/12/29 09:17:05;;;;;;;15.13;8.60;;;;;;;-145.63;100.00;61273.97;5058604;28;20032;-63
2023/12/29 09:19:30;;;;;;;12.15;8.75;;;;;;;-145.63;100.00;61273.97;5057629;28;20194;-63
2023/12/29 09:21:56;;;;;;;12.18;8.30;;;;;;;-145.63;100.00;61273.97;5061182;28;20028;-64
2023/12/29 09:24:22;;;;;;;13.15;8.93;;;;;;;-145.63;100.00;61273.97;5061989;28;20039;-65
2023/12/29 09:26:48;;;;;;;15.32;8.85;;;;;;;-145.63;100.00;61273.97;5054098;28;20028;-63
2023/12/29 09:29:13;;;;;;;15.52;9.70;;;;;;;-145.63;100.00;61273.97;5061401;28;20029;-63
2023/12/29 09:31:39;;;;;;;15.05;8.85;;;;;;;-145.63;100.00;61273.97;5058202;28;20036;-64
2023/12/29 09:34:05;;;;;;;14.48;8.52;;;;;;;-145.63;100.00;61273.97;5064123;28;20068;-64
2023/12/29 09:36:30;;;;;;;15.25;8.95;;;;;;;-145.63;100.00;61273.97;5065648;28;20207;-65
2023/12/29 09:38:56;;;;;;;17.05;9.43;;;;;;;-145.63;100.00;61273.97;5064881;28;20036;-63
2023/12/29 09:41:25;;;;;;;21.48;9.32;;;;;;;-145.63;100.00;61273.97;5065119;28;20086;-63
2023/12/29 09:43:51;;;;;;;18.63;9.43;;;;;;;-145.63;100.00;61273.97;5065225;28;20036;-62
2023/12/29 09:46:20;;;;;;;17.42;9.88;;;;;;;-145.63;100.00;61273.97;5066198;28;20033;-63
2023/12/29 09:48:47;;;;;;;17.27;9.77;;;;;;;-145.63;100.00;61273.97;5065126;28;20095;-63
2023/12/29 09:51:13;;;;;;;13.73;9.30;;;;;;;-145.63;100.00;61273.97;5065881;28;20025;-64
2023/12/29 09:53:40;;;;;;;16.15;9.10;;;;;;;-145.63;100.00;61273.97;5064791;28;20091;-62
2023/12/29 09:56:11;;;;;;;14.48;8.70;;;;;;;-145.63;100.00;61273.97;5065722;28;20067;-64
2023/12/29 09:58:38;;;;;;;19.50;10.02;;;;;;;-145.63;100.00;61273.97;5065726;28;20040;-63
2023/12/29 10:01:05;;;;;;;12.95;9.52;;;;;;;-145.63;100.00;61273.97;5062162;28;20086;-64
2023/12/29 10:03:31;;;;;;;19.33;9.25;;;;;;;-145.63;100.00;61273.97;5057748;28;20582;-62
2023/12/29 10:06:00;;;;;;;16.75;9.45;;;;;;;-145.63;100.00;61273.97;5064166;28;20078;-63
2023/12/29 10:08:28;;;;;;;15.40;8.77;;;;;;;-145.63;100.00;61273.97;5060471;28;20101;-63
2023/12/29 10:10:57;;;;;;;16.58;9.35;;;;;;;-145.63;100.00;61273.97;5062988;28;20032;-62
2023/12/29 10:13:23;;;;;;;12.13;8.80;;;;;;;-145.63;100.00;61273.97;5056891;28;20056;-63
2023/12/29 10:16:01;;;;;;;14.07;9.05;;;;;;;-145.63;100.00;61273.97;5065173;28;20021;-62
2023/12/29 10:18:42;;;;;;;9.35;7.65;;;;;;;-145.63;100.00;61273.97;5071866;28;20025;-63
2023/12/29 10:21:40;;;;;;;15.02;8.18;;;;;;;-145.63;100.00;61273.97;5058701;28;20365;-64
2023/12/29 10:24:26;;;;;;;14.20;8.55;;;;;;;-145.63;100.00;61273.97;5065255;28;20079;-63
2023/12/29 10:26:54;;;;;;;15.90;8.60;;;;;;;-145.63;100.00;61273.97;5054168;28;20322;-64
2023/12/29 10:29:20;;;;;;;13.55;8.00;;;;;;;-145.63;100.00;61273.97;5060502;28;20030;-64
2023/12/29 10:31:46;;;;;;;13.70;8.10;;;;;;;-145.63;100.00;61273.97;5047948;28;20060;-64
2023/12/29 10:34:20;;;;;;;12.50;8.15;;;;;;;-145.63;100.00;61273.97;5065312;28;20369;-62
2023/12/29 10:36:49;;;;;;;16.63;9.93;;;;;;;-145.63;100.00;61273.97;5064095;28;20072;-62
2023/12/29 10:39:15;;;;;;;13.52;8.77;;;;;;;-145.63;100.00;61273.97;5064337;28;20058;-64
2023/12/29 10:41:41;;;;;;;13.68;9.00;;;;;;;-145.63;100.00;61273.97;5064927;28;20025;-64
2023/12/29 10:44:07;;;;;;;14.80;8.55;;;;;;;-145.63;100.00;61273.97;5062928;28;20032;-64
2023/12/29 10:46:33;;;;;;;12.43;9.18;;;;;;;-145.63;100.00;61273.97;5063054;28;20131;-66
2023/12/29 10:49:11;;;;;;;13.55;9.18;;;;;;;-145.63;100.00;61273.97;5064737;28;20067;-65
2023/12/29 10:51:38;;;;;;;11.82;8.23;;;;;;;-145.63;100.00;61273.97;5063996;28;20044;-65
2023/12/29 10:54:04;;;;;;;15.07;9.18;;;;;;;-145.63;100.00;61273.97;5064795;28;20033;-65
2023/12/29 10:56:33;;;;;;;13.15;8.48;;;;;;;-145.63;100.00;61273.97;5063773;28;20025;-64
2023/12/29 10:59:03;;;;;;;12.00;7.65;;;;;;;-145.63;100.00;61273.97;5064137;28;20107;-65
2023/12/29 11:01:31;;;;;;;12.25;8.63;;;;;;;-145.63;100.00;61273.97;5062833;28;20099;-64
2023/12/29 11:04:06;;;;;;;18.67;8.27;;;;;;;-145.63;100.00;61273.97;5063563;28;20099;-65
2023/12/29 11:06:46;;;;;;;14.00;8.93;;;;;;;-145.63;100.00;61273.97;5063983;28;20025;-65